Time;durP1;ratioP1;P1;durP2;ratioP2;P2;SDS_P1;SDS_P2;PMS_P1;PMS_P2;Temp;Humidity;BMP_temperature;BMP_pressure;BME280_temperature;BME280_humidity;BME280_pressure;Samples;Min_cycle;Max_cycle;Signal;HPM_P1;HPM_P2
2021/11/13 00:01:35;;;;;;;84.63;36.25;;;;;;;3.92;100.00;100796.66;5071828;28;20033;-78
2021/11/13 00:04:00;;;;;;;87.07;36.08;;;;;;;3.81;100.00;100779.00;5070909;28;20041;-78
2021/11/13 00:06:26;;;;;;;86.10;35.70;;;;;;;3.74;100.00;100770.69;5071714;28;20064;-78
2021/11/13 00:08:52;;;;;;;87.03;35.13;;;;;;;3.73;100.00;100774.31;5070584;28;20036;-78
2021/11/13 00:11:18;;;;;;;94.53;40.28;;;;;;;3.69;100.00;100780.78;5071777;28;20055;-78
2021/11/13 00:13:44;;;;;;;;;;;;;;;3.75;100.00;100790.88;5071004;28;20082;-78
2021/11/13 00:16:09;;;;;;;94.90;37.10;;;;;;;3.76;100.00;100797.84;5070640;28;19952;-78
2021/11/13 00:18:35;;;;;;;88.33;37.50;;;;;;;3.83;100.00;100802.66;5070783;28;20048;-78
2021/11/13 00:21:05;;;;;;;91.75;37.47;;;;;;;3.87;100.00;100807.59;5071501;28;20369;-78
2021/11/13 00:23:31;;;;;;;88.80;37.17;;;;;;;3.73;100.00;100787.50;5070342;28;20051;-78
2021/11/13 00:25:58;;;;;;;93.57;35.95;;;;;;;3.77;100.00;100799.53;5070599;28;20776;-78
2021/11/13 00:28:26;;;;;;;89.38;36.90;;;;;;;3.71;100.00;100775.38;5070506;28;20035;-78
2021/11/13 00:30:51;;;;;;;;;;;;;;;3.63;100.00;100765.41;5054056;28;20032;-78
2021/11/13 00:33:17;;;;;;;82.45;34.13;;;;;;;3.63;100.00;100773.34;5071066;28;19927;-77
2021/11/13 00:35:43;;;;;;;87.95;35.35;;;;;;;3.53;100.00;100769.69;5070559;28;20033;-78
2021/11/13 00:38:08;;;;;;;92.70;36.40;;;;;;;3.63;100.00;100783.91;5070356;28;20736;-78
2021/11/13 00:40:35;;;;;;;99.90;37.60;;;;;;;3.60;100.00;100776.19;5070122;28;20500;-78
2021/11/13 00:43:01;;;;;;;95.38;35.80;;;;;;;3.63;100.00;100775.13;5071021;28;20033;-78
2021/11/13 00:45:27;;;;;;;90.15;38.67;;;;;;;3.65;100.00;100775.84;5069966;28;20039;-78
2021/11/13 00:47:55;;;;;;;89.20;38.15;;;;;;;3.55;100.00;100763.34;5053626;28;20492;-78
2021/11/13 00:50:20;;;;;;;90.13;38.07;;;;;;;3.48;100.00;100769.22;5070073;28;20016;-78
2021/11/13 00:52:46;;;;;;;100.70;38.83;;;;;;;3.49;100.00;100778.81;5069254;28;20032;-78
2021/11/13 00:55:16;;;;;;;83.88;34.83;;;;;;;3.64;100.00;100804.06;5070692;28;20602;-78
2021/11/13 00:57:42;;;;;;;92.97;38.17;;;;;;;3.62;100.00;100798.03;5070527;28;20134;-78
2021/11/13 01:00:10;;;;;;;102.43;40.80;;;;;;;3.47;100.00;100781.56;5071084;28;20093;-78
2021/11/13 01:02:36;;;;;;;87.25;38.05;;;;;;;3.44;100.00;100797.66;5070813;28;20450;-77
2021/11/13 01:05:03;;;;;;;95.25;39.65;;;;;;;3.62;100.00;100818.34;5069101;28;20047;-78
2021/11/13 01:07:28;;;;;;;93.05;37.63;;;;;;;3.52;100.00;100797.06;5069921;28;20047;-77
2021/11/13 01:09:54;;;;;;;96.18;36.75;;;;;;;3.59;100.00;100814.13;5070121;28;20032;-78
2021/11/13 01:12:19;;;;;;;91.27;36.70;;;;;;;3.57;100.00;100811.59;5069779;28;20075;-78
2021/11/13 01:14:45;;;;;;;93.55;39.13;;;;;;;3.61;100.00;100814.84;5069574;28;20377;-78
2021/11/13 01:17:12;;;;;;;89.33;40.10;;;;;;;3.55;100.00;100794.19;5070503;28;20056;-78
2021/11/13 01:19:42;;;;;;;90.53;36.42;;;;;;;3.61;100.00;100812.22;5070446;28;20029;-78
2021/11/13 01:22:08;;;;;;;103.53;39.50;;;;;;;3.55;100.00;100789.75;5070474;28;20032;-77
2021/11/13 01:24:34;;;;;;;92.15;37.08;;;;;;;3.45;100.00;100786.13;5052519;28;20044;-78
2021/11/13 01:26:59;;;;;;;;;;;;;;;3.50;100.00;100798.97;5052192;28;20622;-78
2021/11/13 01:29:25;;;;;;;92.20;37.03;;;;;;;3.57;100.00;100808.13;5069177;28;19912;-78
2021/11/13 01:31:51;;;;;;;92.40;38.58;;;;;;;3.69;100.00;100817.75;5052562;28;20036;-78
2021/11/13 01:34:16;;;;;;;103.07;42.40;;;;;;;3.50;100.00;100798.97;5069302;28;20450;-77
2021/11/13 01:36:42;;;;;;;107.82;39.78;;;;;;;3.45;100.00;100794.03;5069522;28;20135;-78
2021/11/13 01:39:08;;;;;;;101.32;38.53;;;;;;;3.46;100.00;100813.34;5070437;28;20036;-77
2021/11/13 01:41:33;;;;;;;108.70;39.17;;;;;;;3.47;100.00;100812.41;5069661;28;20122;-77
2021/11/13 01:43:59;;;;;;;102.25;41.45;;;;;;;3.58;100.00;100847.63;5069409;28;20048;-77
2021/11/13 01:46:25;;;;;;;103.03;40.67;;;;;;;3.55;100.00;100841.72;5069454;28;20475;-77
2021/11/13 01:48:51;;;;;;;109.03;40.30;;;;;;;3.55;100.00;100842.53;5069243;28;20017;-78
2021/11/13 01:51:27;;;;;;;98.45;37.65;;;;;;;3.51;100.00;100834.97;5068865;28;20454;-78
2021/11/13 01:53:55;;;;;;;85.25;31.00;;;;;;;3.59;100.00;100844.00;5069283;28;20040;-78
2021/11/13 01:56:22;;;;;;;99.28;36.10;;;;;;;3.54;100.00;100840.03;5069415;28;20025;-77
2021/11/13 01:58:51;;;;;;;93.50;38.30;;;;;;;3.72;100.00;100853.63;5052853;28;20056;-78
2021/11/13 02:01:16;;;;;;;93.07;36.08;;;;;;;3.73;100.00;100824.47;5068946;28;20033;-77
2021/11/13 02:03:46;;;;;;;110.22;41.85;;;;;;;3.51;100.00;100801.53;5069604;28;20039;-77
2021/11/13 02:06:16;;;;;;;104.47;39.00;;;;;;;3.45;100.00;100790.56;5069784;28;20039;-77
2021/11/13 02:08:43;;;;;;;103.20;38.83;;;;;;;3.38;100.00;100784.91;5068972;28;20089;-77
2021/11/13 02:11:09;;;;;;;;;;;;;;;3.51;100.00;100819.13;5069936;28;20351;-77
2021/11/13 02:13:35;;;;;;;98.78;38.38;;;;;;;3.57;100.00;100823.97;5068582;28;19962;-77
2021/11/13 02:16:03;;;;;;;109.10;41.10;;;;;;;3.48;100.00;100814.09;5070475;28;20048;-77
2021/11/13 02:18:29;;;;;;;110.20;41.38;;;;;;;3.41;100.00;100805.78;5072487;28;20423;-77
2021/11/13 02:20:54;;;;;;;123.68;46.13;;;;;;;3.51;100.00;100827.91;5072483;28;20040;-77
2021/11/13 02:23:23;;;;;;;111.55;40.17;;;;;;;3.53;100.00;100825.97;5073096;28;20123;-77
2021/11/13 02:25:50;;;;;;;112.05;41.17;;;;;;;3.46;100.00;100810.72;5073339;28;20120;-78
2021/11/13 02:28:20;;;;;;;120.53;43.35;;;;;;;3.36;100.00;100808.75;5072434;28;20082;-78
2021/11/13 02:30:47;;;;;;;107.15;39.95;;;;;;;3.41;100.00;100823.44;5072458;28;20036;-78
2021/11/13 02:33:13;;;;;;;110.55;41.65;;;;;;;3.32;100.00;100815.22;5072892;28;20119;-77
2021/11/13 02:35:40;;;;;;;110.28;43.53;;;;;;;3.31;100.00;100824.09;5071957;28;20036;-78
2021/11/13 02:38:29;;;;;;;110.53;39.50;;;;;;;3.46;100.00;100843.22;5072480;28;20102;-78
2021/11/13 02:40:58;;;;;;;103.40;38.58;;;;;;;3.41;100.00;100833.97;5072339;28;20032;-78
2021/11/13 02:43:28;;;;;;;110.43;40.90;;;;;;;3.41;100.00;100833.97;5072719;28;20132;-78
2021/11/13 02:45:56;;;;;;;109.43;41.03;;;;;;;3.46;100.00;100847.69;5072240;28;20461;-78
2021/11/13 02:48:25;;;;;;;101.82;40.42;;;;;;;3.40;100.00;100824.41;5073018;28;20453;-78
2021/11/13 02:50:51;;;;;;;110.78;40.25;;;;;;;3.42;100.00;100831.25;5071482;28;20032;-78
2021/11/13 02:53:23;;;;;;;108.90;41.72;;;;;;;3.48;100.00;100837.84;5072548;28;20054;-78
2021/11/13 02:55:51;;;;;;;105.25;38.85;;;;;;;3.41;100.00;100823.44;5072707;28;20032;-78
2021/11/13 02:58:22;;;;;;;109.30;40.78;;;;;;;3.34;100.00;100815.94;5071319;28;20044;-78
2021/11/13 03:00:51;;;;;;;113.70;43.85;;;;;;;3.40;100.00;100838.44;5072356;28;20143;-78
2021/11/13 03:03:19;;;;;;;116.10;41.45;;;;;;;3.42;100.00;100830.38;5071379;28;20056;-78
2021/11/13 03:05:50;;;;;;;116.57;40.50;;;;;;;3.44;100.00;100839.03;5072668;28;20130;-78
2021/11/13 03:08:39;;;;;;;116.95;41.72;;;;;;;3.39;100.00;100826.16;5071646;28;20071;-78
2021/11/13 03:11:07;;;;;;;113.07;40.97;;;;;;;3.50;100.00;100844.69;5071523;28;20035;-78
2021/11/13 03:13:35;;;;;;;107.82;44.50;;;;;;;3.42;100.00;100814.53;5071890;28;20036;-78
2021/11/13 03:16:03;;;;;;;120.57;41.63;;;;;;;3.41;100.00;100820.78;5072494;28;20028;-78
2021/11/13 03:18:30;;;;;;;129.10;46.55;;;;;;;3.45;100.00;100833.63;5054789;28;20020;-77
2021/11/13 03:20:55;;;;;;;123.30;39.55;;;;;;;3.40;100.00;100819.13;5072167;28;20123;-77
2021/11/13 03:23:22;;;;;;;130.43;47.40;;;;;;;3.38;100.00;100833.25;5071112;28;20139;-78
2021/11/13 03:26:04;;;;;;;111.68;43.67;;;;;;;3.50;100.00;100838.56;5071541;28;20509;-78
2021/11/13 03:28:33;;;;;;;113.43;41.33;;;;;;;3.37;100.00;100802.56;5070404;28;20036;-78
2021/11/13 03:31:02;;;;;;;121.72;42.55;;;;;;;3.49;100.00;100835.09;5072128;28;20039;-78
2021/11/13 03:33:29;;;;;;;127.55;44.97;;;;;;;3.46;100.00;100816.84;5071007;28;20107;-78
2021/11/13 03:35:55;;;;;;;120.15;42.17;;;;;;;3.38;100.00;100798.09;5070970;28;20438;-78
2021/11/13 03:38:21;;;;;;;108.53;39.97;;;;;;;3.46;100.00;100813.34;5071067;28;20040;-78
2021/11/13 03:40:50;;;;;;;112.03;43.55;;;;;;;3.50;100.00;100825.38;5054235;28;20031;-78
2021/11/13 03:43:16;;;;;;;130.95;43.50;;;;;;;3.51;100.00;100827.06;5070282;28;20119;-77
2021/11/13 03:45:44;;;;;;;119.45;41.78;;;;;;;3.42;100.00;100809.25;5070694;28;20124;-78
2021/11/13 03:48:09;;;;;;;126.07;44.00;;;;;;;3.40;100.00;100806.75;5071494;28;20392;-78
2021/11/13 03:50:36;;;;;;;109.63;40.65;;;;;;;3.61;100.00;100835.16;5053600;28;20454;-78
2021/11/13 03:53:04;;;;;;;109.70;41.65;;;;;;;3.63;100.00;100823.50;5070615;28;20106;-78
2021/11/13 03:55:31;;;;;;;101.15;37.92;;;;;;;3.69;100.00;100830.13;5071400;28;20051;-78
2021/11/13 03:57:58;;;;;;;107.25;37.35;;;;;;;3.58;100.00;100793.94;5071722;28;20068;-78
2021/11/13 04:00:25;;;;;;;108.15;41.42;;;;;;;3.67;100.00;100800.34;5070423;28;20036;-78
2021/11/13 04:02:52;;;;;;;107.78;38.65;;;;;;;3.44;100.00;100768.63;5071583;28;20089;-78
2021/11/13 04:05:19;;;;;;;108.90;40.08;;;;;;;3.45;100.00;100766.81;5071167;28;20040;-78
2021/11/13 04:07:45;;;;;;;101.63;37.78;;;;;;;3.47;100.00;100770.19;5070633;28;20442;-78
2021/11/13 04:10:12;;;;;;;105.93;40.00;;;;;;;3.40;100.00;100764.53;5071631;28;20021;-78
2021/11/13 04:12:41;;;;;;;95.55;35.70;;;;;;;3.57;100.00;100802.84;5054417;28;20090;-78
2021/11/13 04:15:06;;;;;;;;;;;;;;;3.64;100.00;100798.78;5054217;28;20035;-78
2021/11/13 04:17:32;;;;;;;99.05;35.42;;;;;;;3.56;100.00;100786.16;5071734;28;19916;-79
2021/11/13 04:19:58;;;;;;;92.80;38.45;;;;;;;3.50;100.00;100775.22;5070751;28;20028;-78
2021/11/13 04:22:24;;;;;;;94.10;35.85;;;;;;;3.65;100.00;100789.88;5070341;28;20476;-79
2021/11/13 04:24:50;;;;;;;107.70;37.22;;;;;;;3.45;100.00;100764.19;5070262;28;20102;-78
2021/11/13 04:27:16;;;;;;;93.18;33.08;;;;;;;3.60;100.00;100778.84;5070424;28;20032;-78
2021/11/13 04:29:46;;;;;;;98.25;36.47;;;;;;;3.62;100.00;100784.00;5070318;28;20131;-78
2021/11/13 04:32:14;;;;;;;93.07;38.28;;;;;;;3.55;100.00;100771.25;5070617;28;20083;-78
2021/11/13 04:34:47;;;;;;;98.75;37.25;;;;;;;3.51;100.00;100768.97;5070751;28;20036;-79
2021/11/13 04:37:18;;;;;;;93.47;35.92;;;;;;;3.47;100.00;100759.63;5070491;28;20128;-78
2021/11/13 04:39:48;;;;;;;99.70;37.85;;;;;;;3.61;100.00;100777.06;5070538;28;20658;-78
2021/11/13 04:42:15;;;;;;;101.68;37.30;;;;;;;3.47;100.00;100762.25;5070909;28;20378;-78
2021/11/13 04:44:40;;;;;;;108.75;35.60;;;;;;;3.57;100.00;100787.84;5069761;28;20029;-77
2021/11/13 04:47:06;;;;;;;94.35;35.28;;;;;;;3.65;100.00;100796.97;5069244;28;20024;-78
2021/11/13 04:49:32;;;;;;;101.53;41.30;;;;;;;3.51;100.00;100784.81;5069527;28;20861;-77
2021/11/13 04:51:59;;;;;;;112.13;39.72;;;;;;;3.56;100.00;100780.06;5068846;28;20435;-77
2021/11/13 04:54:25;;;;;;;106.03;39.53;;;;;;;3.46;100.00;100779.03;5068928;28;20037;-78
2021/11/13 04:56:50;;;;;;;97.40;37.40;;;;;;;3.58;100.00;100799.22;5067929;28;20036;-78
2021/11/13 04:59:17;;;;;;;104.57;37.92;;;;;;;3.69;100.00;100816.91;5067691;28;20438;-78
2021/11/13 05:01:42;;;;;;;100.80;35.63;;;;;;;3.61;100.00;100804.31;5068417;28;20028;-78
2021/11/13 05:04:08;;;;;;;100.25;35.92;;;;;;;3.55;100.00;100789.75;5069404;28;20488;-77
2021/11/13 05:06:34;;;;;;;94.57;36.95;;;;;;;3.52;100.00;100799.72;5069785;28;20040;-77
2021/11/13 05:08:59;;;;;;;100.27;37.80;;;;;;;3.57;100.00;100790.47;5052288;28;20033;-77
2021/11/13 05:11:25;;;;;;;100.32;39.38;;;;;;;3.61;100.00;100803.47;5067920;28;20286;-77
2021/11/13 05:13:51;;;;;;;100.47;37.38;;;;;;;3.60;100.00;100802.59;5050701;28;20048;-78
2021/11/13 05:16:16;;;;;;;102.97;36.85;;;;;;;3.62;100.00;100805.13;5068652;28;20035;-77
2021/11/13 05:18:42;;;;;;;93.30;35.17;;;;;;;3.57;100.00;100802.84;5069919;28;20086;-77
2021/11/13 05:21:07;;;;;;;90.70;35.75;;;;;;;3.62;100.00;100808.59;5052065;28;20037;-77
2021/11/13 05:23:33;;;;;;;94.83;35.67;;;;;;;3.50;100.00;100802.47;5069045;28;20107;-77
2021/11/13 05:25:59;;;;;;;98.97;37.70;;;;;;;3.68;100.00;100821.34;5068487;28;20071;-78
2021/11/13 05:28:25;;;;;;;;;;;;;;;3.63;100.00;100812.09;5052754;28;20025;-78
2021/11/13 05:30:51;;;;;;;100.13;38.47;;;;;;;3.57;100.00;100798.41;5069922;28;19923;-77
2021/11/13 05:33:16;;;;;;;104.80;34.70;;;;;;;3.58;100.00;100817.72;5051794;28;20028;-78
2021/11/13 05:35:42;;;;;;;97.72;36.75;;;;;;;3.62;100.00;100831.53;5069527;28;20044;-78
2021/11/13 05:38:08;;;;;;;102.45;39.20;;;;;;;3.56;100.00;100835.50;5051559;28;20044;-77
2021/11/13 05:40:33;;;;;;;103.40;36.78;;;;;;;3.70;100.00;100866.97;5051854;28;20032;-77
2021/11/13 05:42:59;;;;;;;103.90;37.20;;;;;;;3.66;100.00;100854.13;5068789;28;20370;-78
2021/11/13 05:45:24;;;;;;;97.90;36.72;;;;;;;3.70;100.00;100868.75;5069535;28;20033;-78
2021/11/13 05:47:50;;;;;;;105.22;39.03;;;;;;;3.65;100.00;100863.81;5068906;28;20040;-78
2021/11/13 05:50:17;;;;;;;108.40;38.53;;;;;;;3.65;100.00;100874.38;5069750;28;20477;-77
2021/11/13 05:52:46;;;;;;;116.57;41.33;;;;;;;3.62;100.00;100863.22;5071304;28;20044;-77
2021/11/13 05:55:12;;;;;;;116.57;40.80;;;;;;;3.62;100.00;100873.78;5071289;28;20032;-77
2021/11/13 05:57:39;;;;;;;123.93;40.72;;;;;;;3.66;100.00;100891.91;5071337;28;20032;-76
2021/11/13 06:00:07;;;;;;;124.78;43.35;;;;;;;3.71;100.00;100894.22;5054775;28;20063;-76
2021/11/13 06:02:37;;;;;;;135.65;41.90;;;;;;;3.74;100.00;100905.38;5072326;28;20032;-75
2021/11/13 06:05:03;;;;;;;132.55;42.90;;;;;;;3.52;100.00;100879.75;5071754;28;20117;-75
2021/11/13 06:07:28;;;;;;;132.40;43.53;;;;;;;3.59;100.00;100895.97;5070839;28;20090;-76
2021/11/13 06:09:54;;;;;;;122.20;42.20;;;;;;;3.70;100.00;100918.94;5071028;28;20040;-77
2021/11/13 06:12:19;;;;;;;133.87;44.27;;;;;;;3.73;100.00;100918.72;5071658;28;20032;-76
2021/11/13 06:14:45;;;;;;;128.50;43.60;;;;;;;3.66;100.00;100922.78;5053396;28;20024;-76
2021/11/13 06:17:10;;;;;;;127.70;42.53;;;;;;;3.67;100.00;100937.66;5070150;28;20033;-76
2021/11/13 06:19:36;;;;;;;123.90;43.50;;;;;;;3.71;100.00;100937.31;5071152;28;20056;-76
2021/11/13 06:22:02;;;;;;;122.57;43.78;;;;;;;3.58;100.00;100921.53;5070105;28;20036;-77
2021/11/13 06:24:28;;;;;;;128.20;42.25;;;;;;;3.67;100.00;100929.72;5071171;28;20020;-76
2021/11/13 06:26:54;;;;;;;113.55;40.38;;;;;;;3.65;100.00;100921.91;5070693;28;20139;-76
2021/11/13 06:29:20;;;;;;;125.10;44.90;;;;;;;3.55;100.00;100927.03;5069798;28;20028;-76
2021/11/13 06:31:45;;;;;;;134.87;44.97;;;;;;;3.58;100.00;100931.22;5070704;28;20039;-76
2021/11/13 06:34:11;;;;;;;128.50;40.72;;;;;;;3.65;100.00;100950.94;5071210;28;20036;-76
2021/11/13 06:36:36;;;;;;;136.25;43.08;;;;;;;3.61;100.00;100954.78;5070384;28;20037;-75
2021/11/13 06:39:02;;;;;;;127.57;43.50;;;;;;;3.64;100.00;100959.84;5071511;28;20028;-77
2021/11/13 06:41:30;;;;;;;128.20;42.95;;;;;;;3.58;100.00;100952.34;5071310;28;20339;-77
2021/11/13 06:43:58;;;;;;;127.80;41.72;;;;;;;3.62;100.00;100960.91;5070918;28;20051;-76
2021/11/13 06:46:24;;;;;;;135.32;45.67;;;;;;;3.71;100.00;100989.28;5070291;28;20032;-77
2021/11/13 06:48:50;;;;;;;;;;;;;;;3.66;100.00;100986.97;5071618;28;20033;-77
2021/11/13 06:51:15;;;;;;;127.00;40.88;;;;;;;3.52;100.00;100969.50;5070578;28;20286;-76
2021/11/13 06:53:43;;;;;;;127.22;44.17;;;;;;;3.70;100.00;100998.16;5070036;28;20043;-77
2021/11/13 06:56:09;;;;;;;121.53;43.63;;;;;;;3.75;100.00;100998.69;5070176;28;20554;-77
2021/11/13 06:58:35;;;;;;;114.28;41.55;;;;;;;3.66;100.00;100994.91;5070320;28;20036;-78
2021/11/13 07:01:01;;;;;;;128.32;42.85;;;;;;;3.69;100.00;101007.03;5070896;28;20043;-77
2021/11/13 07:03:26;;;;;;;124.23;45.10;;;;;;;3.61;100.00;101004.97;5068787;28;20040;-77
2021/11/13 07:05:52;;;;;;;115.47;42.05;;;;;;;3.64;100.00;101010.00;5071117;28;20287;-77
2021/11/13 07:08:19;;;;;;;132.77;44.70;;;;;;;3.67;100.00;101024.78;5071252;28;20039;-77
2021/11/13 07:10:44;;;;;;;129.90;44.53;;;;;;;3.60;100.00;101013.81;5069757;28;20072;-77
2021/11/13 07:13:10;;;;;;;137.07;44.55;;;;;;;3.67;100.00;101036.19;5070826;28;20063;-77
2021/11/13 07:15:35;;;;;;;137.65;47.13;;;;;;;3.53;100.00;101023.13;5070614;28;20081;-77
2021/11/13 07:18:03;;;;;;;131.90;43.23;;;;;;;3.47;100.00;101035.00;5069946;28;20056;-76
2021/11/13 07:20:30;;;;;;;119.95;42.20;;;;;;;3.53;100.00;101044.25;5069620;28;20033;-76
2021/11/13 07:22:56;;;;;;;139.60;43.58;;;;;;;3.54;100.00;101046.78;5070632;28;20423;-77
2021/11/13 07:25:23;;;;;;;118.60;38.80;;;;;;;3.65;100.00;101068.94;5070526;28;20024;-77
2021/11/13 07:27:49;;;;;;;126.20;42.05;;;;;;;3.59;100.00;101067.59;5069491;28;20093;-77
2021/11/13 07:30:18;;;;;;;132.32;45.20;;;;;;;3.62;100.00;101080.56;5068852;28;20040;-77
2021/11/13 07:32:44;;;;;;;118.47;40.63;;;;;;;3.64;100.00;101085.75;5070456;28;20481;-77
2021/11/13 07:35:10;;;;;;;119.20;40.70;;;;;;;3.71;100.00;101102.84;5070203;28;20587;-77
2021/11/13 07:37:35;;;;;;;123.07;43.13;;;;;;;3.58;100.00;101089.66;5070395;28;20032;-76
2021/11/13 07:40:00;;;;;;;133.20;41.97;;;;;;;3.66;100.00;101097.88;5069063;28;20458;-76
2021/11/13 07:42:26;;;;;;;134.73;45.75;;;;;;;3.70;100.00;101106.41;5068858;28;20072;-76
2021/11/13 07:44:51;;;;;;;126.43;45.27;;;;;;;3.71;100.00;101116.88;5069605;28;20032;-76
2021/11/13 07:47:17;;;;;;;135.02;46.40;;;;;;;3.72;100.00;101113.31;5068739;28;20096;-75
2021/11/13 07:49:43;;;;;;;118.55;41.15;;;;;;;3.73;100.00;101120.25;5069680;28;20028;-76
2021/11/13 07:52:09;;;;;;;122.28;41.22;;;;;;;3.78;100.00;101126.06;5068586;28;20024;-76
2021/11/13 07:54:35;;;;;;;125.57;41.72;;;;;;;3.79;100.00;101125.13;5069289;28;20044;-76
2021/11/13 07:57:00;;;;;;;121.53;40.65;;;;;;;3.80;100.00;101124.16;5069478;28;20032;-76
2021/11/13 07:59:26;;;;;;;137.10;44.80;;;;;;;3.75;100.00;101121.00;5068531;28;20513;-76
2021/11/13 08:01:52;;;;;;;119.70;40.42;;;;;;;3.84;100.00;101126.56;5069565;28;20302;-76
2021/11/13 08:04:17;;;;;;;100.80;39.17;;;;;;;3.93;100.00;101141.75;5068636;28;20472;-76
2021/11/13 08:06:42;;;;;;;116.70;42.55;;;;;;;3.90;100.00;101128.78;5068579;28;20042;-76
2021/11/13 08:09:08;;;;;;;116.73;42.30;;;;;;;3.77;100.00;101105.88;5069864;28;20032;-76
2021/11/13 08:11:34;;;;;;;123.53;40.50;;;;;;;3.85;100.00;101122.97;5052128;28;20158;-76
2021/11/13 08:13:59;;;;;;;123.57;45.78;;;;;;;3.76;100.00;101098.91;5069156;28;20493;-75
2021/11/13 08:16:25;;;;;;;128.77;41.15;;;;;;;3.78;100.00;101112.84;5068786;28;20079;-76
2021/11/13 08:18:50;;;;;;;112.68;41.50;;;;;;;3.77;100.00;101105.88;5069599;28;20127;-76
2021/11/13 08:21:16;;;;;;;134.13;42.80;;;;;;;3.75;100.00;101109.59;5069510;28;20132;-76
2021/11/13 08:23:42;;;;;;;113.47;43.83;;;;;;;3.79;100.00;101118.97;5051596;28;20515;-75
2021/11/13 08:26:09;;;;;;;119.30;41.13;;;;;;;3.76;100.00;101117.38;5069148;28;20040;-75
2021/11/13 08:28:34;;;;;;;114.03;40.45;;;;;;;3.76;100.00;101116.56;5068337;28;20084;-75
2021/11/13 08:31:00;;;;;;;122.85;39.65;;;;;;;3.79;100.00;101118.97;5067712;28;20036;-76
2021/11/13 08:33:29;;;;;;;114.60;40.50;;;;;;;3.86;100.00;101130.78;5067869;28;20173;-75
2021/11/13 08:35:55;;;;;;;111.68;37.50;;;;;;;3.79;100.00;101122.47;5068115;28;20466;-75
2021/11/13 08:38:22;;;;;;;110.70;38.53;;;;;;;3.80;100.00;101132.06;5068883;28;20032;-75
2021/11/13 08:40:49;;;;;;;117.95;44.17;;;;;;;3.83;100.00;101132.81;5068983;28;20071;-75
2021/11/13 08:43:16;;;;;;;111.82;40.45;;;;;;;3.90;100.00;101144.63;5068243;28;20400;-75
2021/11/13 08:45:42;;;;;;;111.82;41.67;;;;;;;3.86;100.00;101136.06;5068886;28;20104;-76
2021/11/13 08:48:08;;;;;;;;;;;;;;;3.87;100.00;101142.22;5068226;28;20121;-75
2021/11/13 08:50:34;;;;;;;120.20;41.00;;;;;;;3.91;100.00;101148.94;5067504;28;20064;-75
2021/11/13 08:53:06;;;;;;;120.07;42.03;;;;;;;3.93;100.00;101155.84;5067633;28;20123;-75
2021/11/13 08:55:34;;;;;;;138.27;43.33;;;;;;;3.83;100.00;101140.72;5067492;28;20445;-75
2021/11/13 08:58:01;;;;;;;125.55;41.38;;;;;;;3.90;100.00;101155.19;5067742;28;20032;-75
2021/11/13 09:00:41;;;;;;;112.75;42.25;;;;;;;3.92;100.00;101161.22;5066157;28;20037;-76
2021/11/13 09:03:13;;;;;;;107.38;36.53;;;;;;;3.97;100.00;101181.06;5066194;28;20104;-76
2021/11/13 09:05:39;;;;;;;105.20;39.67;;;;;;;4.03;100.00;101185.06;5066210;28;20036;-76
2021/11/13 09:08:05;;;;;;;114.63;40.03;;;;;;;4.07;100.00;101183.03;5067354;28;20089;-76
2021/11/13 09:10:31;;;;;;;113.65;38.78;;;;;;;4.04;100.00;101176.19;5066222;28;20036;-76
2021/11/13 09:12:57;;;;;;;116.78;40.08;;;;;;;3.96;100.00;101167.97;5066317;28;20037;-75
2021/11/13 09:15:26;;;;;;;108.47;38.72;;;;;;;3.99;100.00;101180.97;5065856;28;20036;-74
2021/11/13 09:17:54;;;;;;;113.63;39.72;;;;;;;4.03;100.00;101198.28;5049270;28;20041;-74
2021/11/13 09:20:21;;;;;;;107.15;39.65;;;;;;;3.94;100.00;101186.56;5066978;28;20036;-74
2021/11/13 09:22:47;;;;;;;107.72;38.40;;;;;;;4.04;100.00;101207.06;5067220;28;20415;-75
2021/11/13 09:25:13;;;;;;;110.28;38.92;;;;;;;3.94;100.00;101191.00;5065055;28;20366;-75
2021/11/13 09:27:41;;;;;;;119.60;39.88;;;;;;;4.11;100.00;101210.94;5049353;28;20024;-75
2021/11/13 09:30:17;;;;;;;113.05;38.05;;;;;;;4.18;100.00;101220.97;5065318;28;20044;-75
2021/11/13 09:32:43;;;;;;;101.03;37.00;;;;;;;4.18;100.00;101230.69;5067038;28;20079;-75
2021/11/13 09:35:13;;;;;;;115.55;40.13;;;;;;;4.26;100.00;101238.06;5049041;28;20413;-75
2021/11/13 09:37:39;;;;;;;123.25;41.15;;;;;;;4.20;100.00;101228.78;5066782;28;20045;-75
2021/11/13 09:40:08;;;;;;;110.80;41.60;;;;;;;4.31;100.00;101252.66;5066038;28;20063;-75
2021/11/13 09:42:33;;;;;;;101.13;36.33;;;;;;;4.38;100.00;101250.44;5066919;28;20581;-75
2021/11/13 09:44:58;;;;;;;101.35;40.33;;;;;;;4.17;100.00;101214.00;5065588;28;20044;-76
2021/11/13 09:47:24;;;;;;;109.40;39.93;;;;;;;4.28;100.00;101228.22;5065840;28;20028;-76
2021/11/13 09:49:50;;;;;;;107.13;39.33;;;;;;;4.28;100.00;101231.72;5065928;28;20281;-76
2021/11/13 09:52:17;;;;;;;120.05;42.17;;;;;;;4.26;100.00;101214.28;5048961;28;20060;-76
2021/11/13 09:54:44;;;;;;;115.15;42.40;;;;;;;4.39;100.00;101228.31;5065472;28;20052;-76
2021/11/13 09:57:10;;;;;;;;;;;;;;;4.44;100.00;101231.47;5066156;28;20037;-76
2021/11/13 09:59:35;;;;;;;107.97;38.72;;;;;;;4.54;100.00;101242.22;5065807;28;20319;-76
2021/11/13 10:02:03;;;;;;;109.20;38.97;;;;;;;4.58;100.00;101241.88;5049182;28;20036;-76
2021/11/13 10:04:29;;;;;;;107.65;37.40;;;;;;;4.40;100.00;101207.06;5065412;28;20047;-76
2021/11/13 10:06:55;;;;;;;105.38;37.90;;;;;;;4.44;100.00;101210.31;5065638;28;20036;-76
2021/11/13 10:09:20;;;;;;;101.25;36.92;;;;;;;4.57;100.00;101226.97;5049124;28;20067;-76
2021/11/13 10:11:49;;;;;;;93.68;37.88;;;;;;;4.58;100.00;101218.06;5066639;28;20040;-76
2021/11/13 10:14:16;;;;;;;103.05;39.28;;;;;;;4.77;100.00;101216.72;5065303;28;20060;-76
2021/11/13 10:16:46;;;;;;;101.50;37.70;;;;;;;4.81;100.00;101210.25;5065628;28;20521;-76
2021/11/13 10:19:15;;;;;;;98.18;38.78;;;;;;;4.77;100.00;101180.53;5066189;28;20529;-76
2021/11/13 10:21:43;;;;;;;90.50;33.03;;;;;;;4.77;100.00;101171.75;5064614;28;20036;-76
2021/11/13 10:24:13;;;;;;;99.25;38.40;;;;;;;4.71;100.00;101151.06;5046941;28;20028;-76
2021/11/13 10:26:45;;;;;;;89.50;36.97;;;;;;;4.82;100.00;101151.09;5064775;28;20454;-77
2021/11/13 10:29:20;;;;;;;95.00;35.90;;;;;;;4.92;100.00;101157.41;5063857;28;20047;-76
2021/11/13 10:31:52;;;;;;;95.70;36.72;;;;;;;4.73;100.00;101118.25;5063288;28;20119;-77
2021/11/13 10:34:24;;;;;;;99.18;38.63;;;;;;;4.62;100.00;101103.19;5064682;28;20036;-77
2021/11/13 10:36:58;;;;;;;98.15;37.72;;;;;;;4.50;100.00;101075.03;5066538;28;20036;-76
2021/11/13 10:39:34;;;;;;;98.28;37.55;;;;;;;4.58;100.00;101100.88;5068956;28;20526;-76
2021/11/13 10:42:22;;;;;;;100.82;39.22;;;;;;;4.64;100.00;101114.50;5052698;28;20056;-76
2021/11/13 10:44:59;;;;;;;91.72;36.20;;;;;;;4.68;100.00;101120.38;5068708;28;20424;-76
2021/11/13 10:47:32;;;;;;;91.00;36.20;;;;;;;4.73;100.00;101135.91;5069905;28;20037;-77
2021/11/13 10:50:19;;;;;;;99.82;37.40;;;;;;;4.89;100.00;101162.91;5068859;28;20082;-76
2021/11/13 10:53:12;;;;;;;96.47;38.10;;;;;;;4.88;100.00;101155.94;5068674;28;20052;-76
2021/11/13 10:55:59;;;;;;;100.07;36.30;;;;;;;4.93;100.00;101169.66;5068734;28;20362;-76
2021/11/13 10:58:27;;;;;;;98.80;35.15;;;;;;;4.93;100.00;101167.00;5069576;28;20028;-76
2021/11/13 11:00:52;;;;;;;89.68;35.30;;;;;;;4.84;100.00;101159.75;5069454;28;20051;-76
2021/11/13 11:03:18;;;;;;;93.22;35.08;;;;;;;4.79;100.00;101152.16;5069159;28;20036;-75
2021/11/13 11:05:45;;;;;;;91.03;35.53;;;;;;;4.71;100.00;101146.63;5068633;28;20040;-75
2021/11/13 11:08:33;;;;;;;87.10;33.42;;;;;;;4.69;100.00;101155.63;5069268;28;20033;-75